Terminal Aerodrome Forecast
Issued by NWS Northern Indiana

Home | Current Version | Previous Version | Graphics & Text | Print | Product List | Glossary Off
Versions: 1 2 3 4 5 6 7 8 9 10 11 12 13 14 15 16

000
FTUS43 KIWX 202300
TAFFWA
TAF
KFWA 202331Z 2100/2124 20010KT 6SM -TSRA SCT015 OVC040CB
     FM210100 22010KT P6SM VCSH SCT020 BKN060
     FM210600 25008KT P6SM SCT040 BKN080
     FM211000 26010KT P6SM SCT008 BKN015
      TEMPO 2110/2114 3SM BR BKN008
     FM211600 29015G22KT P6SM BKN035=

USA.gov is the U.S. government's official web portal to all federal, state and local government web resources and services.